Time;durP1;ratioP1;P1;durP2;ratioP2;P2;SDS_P1;SDS_P2;PMS_P1;PMS_P2;Temp;Humidity;BMP_temperature;BMP_pressure;BME280_temperature;BME280_humidity;BME280_pressure;Samples;Min_cycle;Max_cycle;Signal;HPM_P1;HPM_P2
2021/09/11 00:01:26;;;;;;;;;32.00;30.00;;;;;18.90;50.58;98926.41;6146737;28;96665;-62
2021/09/11 00:04:30;;;;;;;;;32.20;27.60;;;;;18.84;50.79;98929.41;6146643;28;96691;-62
2021/09/11 00:07:33;;;;;;;;;30.60;28.60;;;;;18.81;50.52;98919.03;6145539;28;97212;-63
2021/09/11 00:10:38;;;;;;;;;34.00;30.20;;;;;18.74;50.69;98919.31;6164323;28;97378;-62
2021/09/11 00:13:41;;;;;;;;;36.25;30.00;;;;;18.68;50.46;98917.66;6163715;28;96472;-62
2021/09/11 00:16:44;;;;;;;;;35.00;30.00;;;;;18.68;50.32;98917.66;6163735;28;97744;-62
2021/09/11 00:19:48;;;;;;;;;27.40;26.40;;;;;18.66;50.10;98921.78;6161591;28;97453;-62
2021/09/11 00:22:51;;;;;;;;;30.50;28.50;;;;;18.59;50.36;98920.13;6146583;28;96617;-63
2021/09/11 00:25:59;;;;;;;;;32.00;28.00;;;;;18.54;50.58;98928.31;6145449;28;99457;-61
2021/09/11 00:29:02;;;;;;;;;28.50;27.00;;;;;18.42;50.53;98930.44;6164082;28;97518;-63
2021/09/11 00:32:06;;;;;;;;;29.60;27.60;;;;;18.29;50.71;98928.25;6146034;28;97741;-62
2021/09/11 00:35:11;;;;;;;;;30.80;28.40;;;;;18.19;50.70;98917.31;6164138;28;96425;-62
2021/09/11 00:38:15;;;;;;;;;28.20;27.00;;;;;18.10;50.97;98913.50;6162644;28;98939;-62
2021/09/11 00:41:19;;;;;;;;;31.00;29.00;;;;;18.06;51.08;98912.41;6163189;28;96738;-62
2021/09/11 00:44:23;;;;;;;;;28.00;27.00;;;;;17.93;51.24;98921.94;6164037;28;97659;-61
2021/09/11 00:47:26;;;;;;;;;33.00;29.75;;;;;17.80;51.68;98916.94;6144820;28;97905;-62
2021/09/11 00:50:30;;;;;;;;;31.00;27.00;;;;;17.80;51.77;98913.41;6163608;28;97679;-62
2021/09/11 00:53:33;;;;;;;;;29.50;26.00;;;;;17.77;51.74;98909.31;6163605;28;97139;-62
2021/09/11 00:56:38;;;;;;;;;31.00;28.00;;;;;17.79;51.60;98906.34;6162675;28;96560;-62
2021/09/11 00:59:42;;;;;;;;;31.00;28.00;;;;;17.84;51.51;98909.06;6162682;28;97788;-62
2021/09/11 01:02:45;;;;;;;;;30.20;27.20;;;;;17.81;51.71;98906.88;6163123;28;96489;-61
2021/09/11 01:05:50;;;;;;;;;28.00;25.60;;;;;17.75;52.26;98909.56;6145091;28;96808;-62
2021/09/11 01:08:53;;;;;;;;;28.40;27.00;;;;;17.76;51.78;98904.94;6163078;28;96562;-62
2021/09/11 01:11:59;;;;;;;;;31.20;28.20;;;;;17.78;51.48;98910.97;6163050;28;96404;-61
2021/09/11 01:15:03;;;;;;;;;26.00;25.00;;;;;17.78;51.51;98926.50;6145331;28;96625;-62
2021/09/11 01:18:08;;;;;;;;;29.40;26.40;;;;;17.82;51.69;98916.69;6161937;28;97357;-62
2021/09/11 01:21:11;;;;;;;;;30.00;27.00;;;;;17.87;51.72;98916.72;6162523;28;97537;-62
2021/09/11 01:24:16;;;;;;;;;27.60;25.60;;;;;17.88;51.61;98919.19;6162006;28;97254;-63
2021/09/11 01:27:19;;;;;;;;;26.00;24.00;;;;;17.88;51.33;98921.09;6163089;28;96813;-62
2021/09/11 01:30:23;;;;;;;;;27.60;22.00;;;;;17.88;51.12;98924.63;6162167;28;96985;-62
2021/09/11 01:33:26;;;;;;;;;25.25;23.50;;;;;17.89;50.85;98918.06;6162868;28;97114;-61
2021/09/11 01:36:30;;;;;;;;;29.60;25.00;;;;;17.89;50.65;98922.69;6115039;28;97743;-62
2021/09/11 01:39:35;;;;;;;;;27.00;25.60;;;;;17.71;50.67;98883.13;6162402;28;96971;-62
2021/09/11 01:42:39;;;;;;;;;25.80;24.80;;;;;17.83;50.64;98924.63;6161438;28;97422;-62
2021/09/11 01:45:42;;;;;;;;;27.00;25.00;;;;;17.81;50.91;98912.31;6159665;28;96764;-62
2021/09/11 01:48:45;;;;;;;;;27.67;25.67;;;;;17.82;50.90;98925.69;6162826;28;97533;-62
2021/09/11 01:51:49;;;;;;;;;26.60;25.00;;;;;17.81;51.09;98926.78;6161997;28;97660;-62
2021/09/11 01:54:54;;;;;;;;;29.00;24.00;;;;;17.75;51.15;98927.84;6161775;28;96620;-62
2021/09/11 01:57:57;;;;;;;;;26.00;24.00;;;;;17.73;51.01;98919.94;6162188;28;96615;-62
2021/09/11 02:01:01;;;;;;;;;27.00;24.00;;;;;17.69;51.21;98918.81;6162390;28;96469;-62
2021/09/11 02:04:04;;;;;;;;;26.50;23.75;;;;;17.67;51.46;98923.72;6161637;28;97434;-62
2021/09/11 02:07:08;;;;;;;;;24.80;23.20;;;;;17.66;51.58;98934.91;6166515;28;96632;-60
2021/09/11 02:10:16;;;;;;;;;27.00;24.00;;;;;17.66;51.46;98922.09;6145903;28;96591;-62
2021/09/11 02:13:19;;;;;;;;;26.40;23.00;;;;;17.69;51.23;98924.28;6166399;28;96997;-62
2021/09/11 02:16:22;;;;;;;;;24.40;23.00;;;;;17.68;51.47;98925.38;6148567;28;97522;-62
2021/09/11 02:19:26;;;;;;;;;25.00;22.80;;;;;17.65;51.68;98906.81;6166600;28;96533;-62
2021/09/11 02:22:29;;;;;;;;;24.80;22.00;;;;;17.73;51.30;98919.13;6164734;28;97174;-61
2021/09/11 02:25:33;;;;;;;;;21.00;20.75;;;;;17.75;51.79;98914.22;6132370;28;96795;-61
2021/09/11 02:28:37;;;;;;;;;25.00;23.00;;;;;17.73;51.98;98921.84;6165371;28;97457;-61
2021/09/11 02:31:40;;;;;;;;;21.25;19.75;;;;;17.70;51.94;98925.09;6166013;28;96359;-62
2021/09/11 02:34:43;;;;;;;;;22.20;21.00;;;;;17.69;51.80;98915.31;6166232;28;96873;-62
2021/09/11 02:37:46;;;;;;;;;23.75;22.00;;;;;17.69;51.51;98921.53;6165789;28;98009;-62
2021/09/11 02:40:51;;;;;;;;;25.00;23.00;;;;;17.65;51.68;98920.44;6166295;28;98093;-62
2021/09/11 02:43:54;;;;;;;;;20.60;20.00;;;;;17.63;51.42;98925.34;6148008;28;98837;-61
2021/09/11 02:46:57;;;;;;;;;25.00;23.00;;;;;17.60;51.37;98919.59;6165557;28;96761;-62
2021/09/11 02:50:03;;;;;;;;;23.00;22.00;;;;;17.58;51.48;98914.41;6148407;28;96716;-61
2021/09/11 02:53:06;;;;;;;;;25.00;23.00;;;;;17.54;51.53;98926.94;6165814;28;97196;-62
2021/09/11 02:56:11;;;;;;;;;21.60;19.60;;;;;17.55;51.28;98914.09;6162607;28;97061;-61
2021/09/11 02:59:15;;;;;;;;;25.50;23.00;;;;;17.52;51.27;98918.19;6147815;28;97413;-62
2021/09/11 03:02:18;;;;;;;;;24.40;21.60;;;;;17.52;50.91;98915.47;6165604;28;97030;-61
2021/09/11 03:05:22;;;;;;;;;23.00;21.00;;;;;17.49;50.91;98912.47;6165406;28;97046;-60
2021/09/11 03:08:25;;;;;;;;;23.40;21.00;;;;;17.45;50.86;98911.31;6165011;28;96663;-62
2021/09/11 03:11:30;;;;;;;;;25.40;24.00;;;;;17.41;51.20;98907.50;6147861;28;97062;-62
2021/09/11 03:14:33;;;;;;;;;23.80;22.80;;;;;17.36;51.09;98915.63;6164876;28;96984;-62
2021/09/11 03:17:37;;;;;;;;;25.00;23.00;;;;;17.32;50.90;98908.00;6164501;28;96560;-62
2021/09/11 03:20:41;;;;;;;;;24.50;21.00;;;;;17.32;51.52;98909.91;6165053;28;96570;-62
2021/09/11 03:23:44;;;;;;;;;24.40;23.00;;;;;17.32;51.45;98918.09;6165052;28;97208;-61
2021/09/11 03:26:48;;;;;;;;;25.00;23.00;;;;;17.35;51.63;98911.28;6164994;28;96540;-62
2021/09/11 03:29:52;;;;;;;;;24.50;21.00;;;;;17.35;51.39;98914.81;6164773;28;97464;-62
2021/09/11 03:32:55;;;;;;;;;22.00;21.00;;;;;17.36;51.31;98908.28;6162259;28;96881;-61
2021/09/11 03:35:58;;;;;;;;;25.00;23.00;;;;;17.37;51.16;98909.09;6145911;28;100091;-60
2021/09/11 03:39:02;;;;;;;;;24.20;23.00;;;;;17.31;51.20;98908.25;6164353;28;96913;-61
2021/09/11 03:42:07;;;;;;;;;24.00;23.00;;;;;17.29;51.27;98897.66;6164007;28;96870;-62
2021/09/11 03:45:10;;;;;;;;;22.75;22.00;;;;;17.24;51.14;98902.25;6147339;28;96556;-62
2021/09/11 05:49:33;;;;;;;;;25.40;22.00;;;;;19.39;50.27;98923.84;7262982;22;97531;-62
2021/09/11 05:52:36;;;;;;;;;21.25;18.00;;;;;19.67;50.12;98921.59;6162395;28;97233;-61
2021/09/11 05:55:40;;;;;;;;;23.00;20.00;;;;;19.97;49.95;98929.66;6168319;28;96501;-62
2021/09/11 05:58:44;;;;;;;;;22.00;19.00;;;;;20.30;49.39;98936.31;6160174;28;97438;-62
2021/09/11 06:01:47;;;;;;;;;19.00;17.00;;;;;20.66;49.08;98924.03;6160570;28;97182;-62
2021/09/11 06:04:52;;;;;;;;;20.60;18.20;;;;;21.01;47.85;98922.88;6159734;28;96944;-62
2021/09/11 06:07:56;;;;;;;;;20.20;19.00;;;;;21.36;46.85;98923.66;6159779;28;97458;-62
2021/09/11 06:10:59;;;;;;;;;17.80;16.00;;;;;21.64;46.47;98917.31;6159876;28;97900;-62
2021/09/11 06:14:02;;;;;;;;;22.25;19.00;;;;;21.76;47.37;98912.19;6161164;28;97214;-62
2021/09/11 06:17:07;;;;;;;;;22.00;20.60;;;;;22.16;47.11;98927.34;6154278;28;97628;-61
2021/09/11 06:20:16;;;;;;;;;21.00;19.60;;;;;22.40;46.18;98925.34;6165557;28;97479;-63
2021/09/11 06:23:19;;;;;;;;;21.60;19.60;;;;;22.63;45.30;98929.09;6143961;28;97142;-63
2021/09/11 06:26:22;;;;;;;;;20.40;20.00;;;;;22.91;44.79;98938.31;6161260;28;97572;-63
2021/09/11 06:29:26;;;;;;;;;19.00;18.40;;;;;23.17;44.20;98933.97;6161376;28;96777;-62
2021/09/11 06:32:30;;;;;;;;;17.50;16.25;;;;;23.53;42.77;98931.41;6161948;28;97621;-63
2021/09/11 06:35:38;;;;;;;;;21.00;17.80;;;;;23.82;41.34;98938.53;6161490;28;96581;-62
2021/09/11 06:38:42;;;;;;;;;20.00;19.00;;;;;24.08;40.76;98940.44;6161070;28;96676;-63
2021/09/11 06:41:45;;;;;;;;;16.25;16.00;;;;;24.36;40.03;98943.97;6161597;28;96701;-63
2021/09/11 06:44:48;;;;;;;;;14.80;14.60;;;;;24.63;39.77;98940.31;6161347;28;97501;-63
2021/09/11 06:47:52;;;;;;;;;18.40;16.40;;;;;24.90;38.86;98945.75;6161058;28;97480;-62
2021/09/11 06:50:57;;;;;;;;;16.50;15.50;;;;;25.27;38.78;98935.41;6151557;28;96700;-62
2021/09/11 06:54:00;;;;;;;;;18.00;17.00;;;;;25.53;37.94;98946.56;6158727;28;97512;-62
2021/09/11 06:57:03;;;;;;;;;17.60;16.00;;;;;25.81;37.72;98942.47;6160887;28;96938;-62
2021/09/11 07:00:08;;;;;;;;;19.00;18.00;;;;;26.09;37.43;98952.16;6146227;28;96859;-62
2021/09/11 07:03:11;;;;;;;;;19.00;16.60;;;;;26.20;37.18;98953.47;6154515;28;97845;-62
2021/09/11 07:06:16;;;;;;;;;17.00;16.00;;;;;26.37;37.19;98946.38;6144961;28;96922;-62
2021/09/11 07:09:20;;;;;;;;;18.00;17.00;;;;;26.77;37.20;98945.09;6150532;28;96897;-62
2021/09/11 07:12:23;;;;;;;;;18.00;16.00;;;;;27.13;36.19;98947.47;6149120;28;97578;-61
2021/09/11 07:15:26;;;;;;;;;14.00;14.00;;;;;27.43;35.13;98948.38;6153664;28;97208;-61
2021/09/11 07:18:30;;;;;;;;;16.40;13.00;;;;;27.59;35.06;98943.97;6147270;28;97459;-59
2021/09/11 07:21:34;;;;;;;;;15.20;14.20;;;;;27.89;35.10;98948.38;6147077;28;97482;-61
2021/09/11 07:24:38;;;;;;;;;15.80;14.40;;;;;28.11;34.73;98950.06;6141728;28;97385;-62
2021/09/11 07:27:41;;;;;;;;;14.20;13.20;;;;;28.35;34.50;98950.22;6145274;28;97647;-62
2021/09/11 07:30:44;;;;;;;;;14.00;13.60;;;;;28.72;33.51;98945.75;6164695;28;97315;-62
2021/09/11 07:33:47;;;;;;;;;16.00;15.00;;;;;29.05;33.44;98950.47;6165248;28;97310;-62
2021/09/11 07:36:52;;;;;;;;;14.60;13.60;;;;;29.42;33.94;98954.22;6144457;28;97657;-60
2021/09/11 07:39:55;;;;;;;;;12.25;11.75;;;;;29.94;33.42;98951.63;6151791;28;97049;-62
2021/09/11 07:42:58;;;;;;;;;15.00;15.00;;;;;30.30;31.62;98948.78;6164615;28;96851;-63
2021/09/11 07:46:02;;;;;;;;;12.40;12.00;;;;;30.61;30.42;98955.72;6147049;28;98106;-61
2021/09/11 07:49:05;;;;;;;;;13.00;11.00;;;;;30.88;29.78;98958.53;6163698;28;97576;-63
2021/09/11 07:52:10;;;;;;;;;12.40;11.40;;;;;31.12;29.26;98959.59;6146548;28;96576;-62
2021/09/11 07:55:13;;;;;;;;;12.00;10.00;;;;;31.16;28.77;98961.31;6163974;28;98414;-62
2021/09/11 07:58:17;;;;;;;;;11.00;11.00;;;;;31.27;28.62;98965.22;6164836;28;97519;-61
2021/09/11 08:01:21;;;;;;;;;12.00;10.80;;;;;31.55;28.05;98958.78;6164069;28;97294;-62
2021/09/11 08:04:25;;;;;;;;;10.00;10.00;;;;;31.82;26.63;98957.88;6165071;28;97196;-63
2021/09/11 08:07:29;;;;;;;;;9.20;9.20;;;;;32.17;27.00;98958.78;6160712;28;97590;-63
2021/09/11 08:10:33;;;;;;;;;9.00;9.00;;;;;32.52;26.66;98964.38;6162914;28;97413;-62
2021/09/11 08:13:36;;;;;;;;;8.00;8.00;;;;;32.85;25.81;98963.09;6144198;28;97803;-61
2021/09/11 08:16:40;;;;;;;;;10.00;8.40;;;;;33.17;24.87;98960.97;6146493;28;97453;-61
2021/09/11 08:19:43;;;;;;;;;10.40;9.40;;;;;33.31;24.94;98967.66;6163580;28;97283;-61
2021/09/11 08:22:47;;;;;;;;;9.00;8.00;;;;;33.50;25.14;98962.00;6163932;28;96579;-62
2021/09/11 08:25:51;;;;;;;;;10.00;10.00;;;;;33.90;25.48;98961.53;6164112;28;97510;-59
2021/09/11 08:28:55;;;;;;;;;10.00;9.00;;;;;34.33;24.25;98951.84;6163964;28;97933;-61
2021/09/11 08:31:58;;;;;;;;;11.00;10.00;;;;;34.76;24.23;98958.03;6164420;28;97496;-61
2021/09/11 08:35:01;;;;;;;;;10.20;9.80;;;;;35.01;23.67;98947.13;6162949;28;97263;-60
2021/09/11 08:38:06;;;;;;;;;11.00;10.00;;;;;35.12;23.07;98945.25;6163074;28;96803;-60
2021/09/11 08:41:14;;;;;;;;;8.40;8.00;;;;;35.44;23.10;98954.84;6163762;28;98189;-61
2021/09/11 08:44:17;;;;;;;;;11.00;10.00;;;;;35.56;23.21;98959.38;6155559;28;97186;-60
2021/09/11 08:47:21;;;;;;;;;9.60;9.00;;;;;35.83;22.45;98946.81;6145978;28;97421;-60
2021/09/11 08:50:25;;;;;;;;;10.00;9.40;;;;;36.23;22.84;98951.53;6164297;28;96600;-60
2021/09/11 08:53:30;;;;;;;;;8.00;8.00;;;;;36.26;21.56;98941.56;6163522;28;96582;-62
2021/09/11 08:56:38;;;;;;;;;9.00;9.00;;;;;36.14;21.96;98944.66;6160067;28;96698;-62
2021/09/11 08:59:41;;;;;;;;;7.60;7.00;;;;;36.17;20.95;98944.69;6161585;28;96657;-61
2021/09/11 09:02:45;;;;;;;;;10.00;8.40;;;;;36.29;21.41;98937.94;6159568;28;98337;-61
2021/09/11 09:05:49;;;;;;;;;8.40;8.00;;;;;36.58;21.18;98936.09;6160865;28;97989;-61
2021/09/11 09:08:55;;;;;;;;;7.75;7.00;;;;;36.82;21.23;98932.63;6160890;28;98083;-62
2021/09/11 09:12:13;;;;;;;;;7.50;6.50;;;;;37.12;20.63;98927.53;6136881;28;97701;-62
2021/09/11 09:15:18;;;;;;;;;10.00;9.00;;;;;37.23;20.09;98928.38;6156860;28;97543;-61
2021/09/11 09:18:32;;;;;;;;;9.25;9.00;;;;;37.27;20.35;98929.19;6156091;28;98297;-61
2021/09/11 09:21:36;;;;;;;;;10.00;9.00;;;;;37.38;18.46;98931.22;6157397;28;98435;-60
2021/09/11 09:24:41;;;;;;;;;8.00;7.00;;;;;37.47;18.07;98931.63;6137749;28;98356;-61
2021/09/11 09:27:50;;;;;;;;;10.25;8.75;;;;;37.78;18.37;98927.25;6154942;28;97593;-62
2021/09/11 09:30:53;;;;;;;;;8.00;8.00;;;;;37.95;18.76;98923.59;6156500;28;98512;-60
2021/09/11 09:33:56;;;;;;;;;9.00;9.00;;;;;38.09;17.45;98930.06;6159119;28;97460;-62
2021/09/11 09:37:03;;;;;;;;;7.75;7.00;;;;;38.25;17.52;98931.63;6160704;28;97536;-60
2021/09/11 09:40:10;;;;;;;;;9.00;9.00;;;;;38.37;17.68;98931.19;6163162;28;96979;-61
2021/09/11 09:43:28;;;;;;;;;9.00;7.40;;;;;38.56;16.87;98923.13;6162559;28;97153;-62
2021/09/11 09:46:38;;;;;;;;;8.00;7.60;;;;;38.55;16.02;98924.34;6141926;28;97778;-60
2021/09/11 09:49:42;;;;;;;;;7.60;7.00;;;;;38.63;16.55;98922.31;6162257;28;97366;-62
2021/09/11 09:52:46;;;;;;;;;8.00;7.40;;;;;38.80;15.80;98918.63;6161872;28;96764;-61
2021/09/11 09:55:52;;;;;;;;;6.00;6.00;;;;;38.96;15.91;98918.16;6161956;28;96680;-62
2021/09/11 09:58:56;;;;;;;;;7.60;7.60;;;;;39.28;15.77;98912.34;6161773;28;97389;-61
2021/09/11 10:01:59;;;;;;;;;5.40;5.00;;;;;39.34;14.56;98914.31;6163031;28;97390;-62
2021/09/11 10:05:03;;;;;;;;;7.00;6.00;;;;;39.59;15.11;98913.31;6161479;28;97540;-61
2021/09/11 10:08:10;;;;;;;;;5.00;5.00;;;;;39.74;12.20;98917.63;6161751;28;97397;-62
2021/09/11 10:11:14;;;;;;;;;6.00;6.00;;;;;39.74;13.04;98909.16;6161311;28;96574;-60
2021/09/11 10:14:20;;;;;;;;;5.00;4.60;;;;;39.73;13.56;98914.00;6145086;28;99558;-62
2021/09/11 10:17:33;;;;;;;;;6.00;6.00;;;;;39.41;12.67;98911.44;6161751;28;96612;-61
2021/09/11 10:21:12;;;;;;;;;5.00;4.00;;;;;39.29;13.79;98911.13;6162566;28;96613;-61
2021/09/11 10:24:35;;;;;;;;;5.00;5.00;;;;;39.39;12.03;98910.28;6156247;28;97568;-63
2021/09/11 10:27:42;;;;;;;;;6.00;5.40;;;;;39.45;13.25;98919.06;6162556;28;96677;-61
2021/09/11 10:31:04;;;;;;;;;7.00;7.00;;;;;39.50;13.08;98916.63;6162634;28;96767;-60
2021/09/11 10:34:08;;;;;;;;;5.00;4.80;;;;;39.31;13.64;98915.13;6166411;28;97473;-61
2021/09/11 10:37:11;;;;;;;;;6.00;5.00;;;;;39.40;14.05;98912.66;6148530;28;97205;-60
2021/09/11 10:40:24;;;;;;;;;5.00;5.00;;;;;39.32;12.82;98905.47;6149298;28;97192;-60
2021/09/11 10:43:34;;;;;;;;;6.00;5.60;;;;;39.31;12.49;98908.66;6167218;28;96697;-62
2021/09/11 10:46:47;;;;;;;;;7.00;7.00;;;;;39.47;14.26;98902.56;6166242;28;96712;-62
2021/09/11 10:50:13;;;;;;;;;8.40;8.40;;;;;39.57;14.59;98907.31;6162894;28;97643;-62
2021/09/11 10:53:20;;;;;;;;;7.60;7.40;;;;;39.74;14.60;98901.50;6148095;28;97050;-61
2021/09/11 10:56:25;;;;;;;;;6.60;6.60;;;;;39.68;13.66;98905.22;6166511;28;97446;-61
2021/09/11 10:59:38;;;;;;;;;6.40;6.00;;;;;39.71;14.29;98901.53;6164931;28;96586;-62
2021/09/11 11:02:41;;;;;;;;;6.00;6.00;;;;;39.71;14.35;98896.69;6165186;28;96566;-62
2021/09/11 11:05:59;;;;;;;;;9.00;8.00;;;;;39.98;13.54;98902.53;6167890;28;96660;-63
2021/09/11 11:09:03;;;;;;;;;6.60;6.60;;;;;40.15;14.07;98892.28;6148537;28;97162;-63
2021/09/11 11:12:07;;;;;;;;;7.00;6.20;;;;;40.23;13.53;98893.81;6165712;28;96699;-61
2021/09/11 11:15:14;;;;;;;;;5.40;5.40;;;;;40.18;13.45;98897.06;6165494;28;97073;-63
2021/09/11 11:18:17;;;;;;;;;6.60;6.00;;;;;40.11;13.25;98869.72;6144804;28;97451;-61
2021/09/11 11:21:23;;;;;;;;;8.25;7.00;;;;;40.32;13.34;98885.66;6166626;28;96616;-60
2021/09/11 11:24:28;;;;;;;;;7.00;7.00;;;;;40.24;13.18;98887.75;6164536;28;98354;-62
2021/09/11 11:27:32;;;;;;;;;6.00;6.00;;;;;40.03;13.04;98887.16;6146832;28;97417;-63
2021/09/11 11:30:38;;;;;;;;;8.00;7.00;;;;;39.89;13.06;98873.16;6146968;28;96617;-61
2021/09/11 11:33:44;;;;;;;;;4.20;4.00;;;;;39.67;13.30;98878.19;6163503;28;97664;-62
2021/09/11 11:36:52;;;;;;;;;7.00;6.50;;;;;39.49;13.59;98874.75;6155907;28;97498;-62
2021/09/11 11:40:00;;;;;;;;;5.25;5.25;;;;;39.61;14.03;98872.19;6163519;28;96629;-61
2021/09/11 11:43:05;;;;;;;;;7.50;7.50;;;;;39.76;13.60;98875.72;6163670;28;96930;-62
2021/09/11 11:46:09;;;;;;;;;6.00;6.00;;;;;39.74;13.45;98867.63;6143789;28;97623;-62
2021/09/11 11:49:13;;;;;;;;;6.00;5.20;;;;;39.84;13.62;98860.31;6161110;28;96970;-61
2021/09/11 11:52:17;;;;;;;;;8.00;7.00;;;;;40.04;14.10;98861.31;6148137;28;96722;-60
2021/09/11 11:55:22;;;;;;;;;5.00;5.00;;;;;40.13;13.72;98858.00;6161948;28;96877;-60
2021/09/11 11:58:27;;;;;;;;;7.00;6.00;;;;;39.95;13.52;98854.56;6163960;28;97529;-60
2021/09/11 12:01:32;;;;;;;;;7.00;5.00;;;;;39.33;14.07;98850.69;6165071;28;97596;-62
2021/09/11 12:04:35;;;;;;;;;8.00;7.00;;;;;39.15;14.13;98849.16;6164513;28;97482;-60
2021/09/11 12:07:39;;;;;;;;;8.00;7.00;;;;;39.20;15.44;98843.06;6164576;28;97374;-61
2021/09/11 12:10:52;;;;;;;;;7.75;7.25;;;;;39.27;14.53;98848.66;6163320;28;96501;-62
2021/09/11 12:13:59;;;;;;;;;7.25;7.25;;;;;39.25;13.94;98843.44;6164899;28;96604;-60
2021/09/11 12:17:04;;;;;;;;;7.00;6.00;;;;;39.06;14.10;98846.78;6164774;28;97797;-62
2021/09/11 12:20:15;;;;;;;;;8.00;8.00;;;;;38.70;14.07;98834.13;6165723;28;97444;-62
2021/09/11 12:23:20;;;;;;;;;5.25;5.25;;;;;38.63;14.02;98834.94;6146078;28;97559;-60
2021/09/11 12:26:29;;;;;;;;;6.00;6.00;;;;;38.22;14.56;98820.59;6167111;28;96626;-61
2021/09/11 12:29:32;;;;;;;;;8.00;8.00;;;;;38.17;15.65;98826.66;6160495;28;97250;-60
2021/09/11 12:32:36;;;;;;;;;7.00;7.00;;;;;38.02;15.65;98825.91;6162096;28;96593;-62
2021/09/11 12:35:41;;;;;;;;;6.00;6.00;;;;;37.88;15.37;98825.09;6170964;28;97578;-61
2021/09/11 12:38:44;;;;;;;;;7.40;6.40;;;;;37.86;15.17;98824.72;6163501;28;97381;-62
2021/09/11 12:41:50;;;;;;;;;7.25;6.25;;;;;37.99;15.97;98817.47;6163586;28;96979;-61
2021/09/11 12:44:53;;;;;;;;;8.20;8.20;;;;;38.07;16.25;98811.41;6163040;28;96672;-62
2021/09/11 12:47:58;;;;;;;;;8.00;7.25;;;;;38.16;15.46;98816.63;6163939;28;97334;-62
2021/09/11 12:51:01;;;;;;;;;8.00;7.60;;;;;38.10;15.31;98812.63;6162699;28;96562;-62
2021/09/11 12:54:04;;;;;;;;;7.00;6.80;;;;;37.91;15.96;98807.41;6160968;28;96976;-62
2021/09/11 12:57:10;;;;;;;;;8.00;8.00;;;;;37.90;15.97;98803.00;6153807;28;96938;-60
2021/09/11 13:00:14;;;;;;;;;8.00;7.00;;;;;37.50;16.04;98798.63;6163897;28;97476;-62
2021/09/11 13:03:18;;;;;;;;;5.00;5.00;;;;;37.39;16.17;98801.44;6160572;28;96787;-60
2021/09/11 13:06:22;;;;;;;;;6.00;6.00;;;;;37.42;16.14;98802.66;6145149;28;97511;-61
2021/09/11 13:09:25;;;;;;;;;5.60;5.60;;;;;37.29;15.45;98797.41;6163461;28;97482;-62
2021/09/11 13:12:28;;;;;;;;;7.00;6.40;;;;;37.12;16.12;98770.13;6164033;28;97519;-61
2021/09/11 13:15:32;;;;;;;;;6.00;6.00;;;;;37.32;16.04;98795.81;6163218;28;96639;-62
2021/09/11 13:18:37;;;;;;;;;6.00;6.00;;;;;37.22;16.25;98786.19;6162409;28;96710;-62
2021/09/11 13:21:43;;;;;;;;;6.00;6.00;;;;;37.10;15.91;98792.19;6163231;28;97567;-62
2021/09/11 13:24:47;;;;;;;;;6.00;6.00;;;;;37.09;16.13;98793.41;6163157;28;97568;-62
2021/09/11 13:27:50;;;;;;;;;7.00;7.00;;;;;37.03;15.13;98788.56;6162475;28;97602;-62
2021/09/11 13:30:53;;;;;;;;;6.60;6.40;;;;;36.98;14.92;98791.75;6162864;28;96620;-62
2021/09/11 13:33:58;;;;;;;;;7.00;6.60;;;;;36.92;15.53;98787.75;6162600;28;96977;-62
2021/09/11 13:37:01;;;;;;;;;7.00;7.00;;;;;36.75;16.29;98786.53;6162684;28;96804;-60
2021/09/11 13:40:06;;;;;;;;;7.00;6.00;;;;;36.62;15.84;98788.88;6160330;28;96680;-61
2021/09/11 13:43:10;;;;;;;;;6.40;6.00;;;;;36.55;16.94;98785.25;6161765;28;97508;-62
2021/09/11 13:46:23;;;;;;;;;6.00;6.00;;;;;36.38;16.49;98781.16;6160757;28;97577;-61
2021/09/11 13:49:28;;;;;;;;;6.00;5.00;;;;;36.16;16.50;98780.28;6159221;28;97618;-61
2021/09/11 13:52:31;;;;;;;;;7.40;7.00;;;;;35.95;16.71;98772.53;6147079;28;96945;-61
2021/09/11 13:55:35;;;;;;;;;9.00;7.00;;;;;35.90;17.28;98764.50;6161384;28;96728;-61
2021/09/11 13:58:38;;;;;;;;;7.20;6.80;;;;;35.89;17.24;98768.50;6159948;28;96597;-61
2021/09/11 14:01:41;;;;;;;;;7.00;6.20;;;;;35.97;16.93;98770.13;6146940;28;97432;-61
2021/09/11 14:04:46;;;;;;;;;6.50;6.50;;;;;36.00;16.64;98765.75;6139680;28;97482;-62
2021/09/11 14:07:50;;;;;;;;;8.00;7.00;;;;;36.07;17.39;98762.19;6141655;28;96639;-62
2021/09/11 14:10:53;;;;;;;;;8.00;7.00;;;;;36.11;16.74;98772.22;6151823;28;97551;-60
2021/09/11 14:13:59;;;;;;;;;9.00;8.40;;;;;35.91;17.29;98770.91;6125777;28;96705;-60
2021/09/11 14:17:02;;;;;;;;;8.00;7.20;;;;;35.62;17.27;98745.50;6144117;28;97390;-63
2021/09/11 14:20:09;;;;;;;;;7.60;7.00;;;;;35.76;17.97;98764.44;6143655;28;97153;-59
2021/09/11 14:23:12;;;;;;;;;8.00;7.00;;;;;35.90;17.71;98764.50;6133000;28;98069;-59
2021/09/11 14:26:15;;;;;;;;;8.00;7.00;;;;;35.89;17.30;98768.50;6162150;28;97172;-60
2021/09/11 14:29:20;;;;;;;;;8.00;7.80;;;;;35.87;17.54;98759.66;6161874;28;97848;-61
2021/09/11 14:32:23;;;;;;;;;8.00;7.00;;;;;35.84;17.68;98760.47;6144382;28;97243;-60
2021/09/11 14:35:28;;;;;;;;;8.00;7.00;;;;;35.78;17.37;98758.41;6143083;28;96720;-59
2021/09/11 14:38:48;;;;;;;;;9.00;8.00;;;;;35.67;18.11;98761.19;6143632;28;96662;-61
2021/09/11 14:41:51;;;;;;;;;9.40;8.40;;;;;35.62;18.40;98767.94;6161009;28;97112;-59
2021/09/11 14:44:55;;;;;;;;;9.00;8.00;;;;;35.56;18.19;98768.69;6160593;28;97392;-61
2021/09/11 14:47:58;;;;;;;;;8.80;8.00;;;;;35.52;19.02;98767.84;6146699;28;97830;-61
2021/09/11 14:51:03;;;;;;;;;10.00;9.00;;;;;35.34;18.06;98758.50;6140424;28;97448;-60
2021/09/11 14:54:06;;;;;;;;;8.00;7.20;;;;;35.27;18.32;98759.25;6152544;28;97377;-61
2021/09/11 14:57:09;;;;;;;;;8.80;8.20;;;;;35.21;18.86;98763.63;6160256;28;96694;-60
2021/09/11 15:00:14;;;;;;;;;9.00;7.00;;;;;35.02;18.57;98761.84;6157384;28;97448;-61
2021/09/11 15:03:17;;;;;;;;;7.00;6.80;;;;;34.86;18.67;98757.66;6161273;28;96903;-61
2021/09/11 15:06:23;;;;;;;;;8.00;8.00;;;;;34.79;19.18;98752.81;6160930;28;97425;-61
2021/09/11 15:09:29;;;;;;;;;9.00;8.00;;;;;34.66;19.10;98752.25;6161073;28;96811;-62
2021/09/11 15:12:33;;;;;;;;;11.25;10.00;;;;;34.47;19.31;98738.47;6161755;28;97319;-62
2021/09/11 15:15:37;;;;;;;;;10.00;9.40;;;;;34.47;19.81;98746.06;6160946;28;96553;-61
2021/09/11 15:18:41;;;;;;;;;8.50;8.00;;;;;34.35;19.85;98747.94;6144881;28;97506;-62
2021/09/11 15:21:45;;;;;;;;;10.40;9.80;;;;;34.26;19.94;98749.41;6165508;28;97472;-60
2021/09/11 15:24:49;;;;;;;;;8.00;7.60;;;;;34.22;20.23;98748.56;6165275;28;97442;-60
2021/09/11 15:27:52;;;;;;;;;7.80;7.00;;;;;34.07;19.95;98730.78;6166129;28;96638;-63
2021/09/11 15:31:02;;;;;;;;;10.20;8.20;;;;;34.03;20.42;98743.09;6163494;28;96800;-62
2021/09/11 15:34:06;;;;;;;;;10.00;9.00;;;;;33.85;20.80;98742.91;6164838;28;97535;-62
2021/09/11 15:37:10;;;;;;;;;10.00;9.60;;;;;33.74;20.51;98739.94;6165976;28;97161;-60
2021/09/11 15:40:14;;;;;;;;;10.00;9.00;;;;;33.57;20.77;98742.47;6148050;28;97161;-61
2021/09/11 15:43:21;;;;;;;;;10.00;9.20;;;;;33.45;21.15;98747.09;6147995;28;97534;-61
2021/09/11 15:46:24;;;;;;;;;10.00;8.20;;;;;33.29;21.10;98743.66;6163272;28;96644;-60
2021/09/11 15:49:27;;;;;;;;;9.00;9.00;;;;;33.12;20.76;98744.16;6165069;28;96619;-60
2021/09/11 15:52:34;;;;;;;;;12.25;10.00;;;;;32.96;21.70;98738.72;6147351;28;96605;-60
2021/09/11 15:55:37;;;;;;;;;8.40;7.80;;;;;32.82;21.56;98748.81;6147199;28;96734;-62
2021/09/11 15:58:41;;;;;;;;;9.25;9.00;;;;;32.69;21.69;98751.00;6146685;28;96775;-62
2021/09/11 16:01:44;;;;;;;;;8.50;8.00;;;;;32.42;21.92;98738.09;6146301;28;97812;-60
2021/09/11 16:04:48;;;;;;;;;9.25;9.00;;;;;32.38;22.26;98751.19;6164940;28;97085;-60
2021/09/11 16:07:53;;;;;;;;;10.00;9.40;;;;;32.23;22.48;98747.31;6164183;28;97379;-61
2021/09/11 16:10:57;;;;;;;;;8.00;8.00;;;;;32.10;22.66;98748.59;6164744;28;97055;-60
2021/09/11 16:14:00;;;;;;;;;10.00;9.00;;;;;31.80;23.19;98732.47;6162800;28;96640;-61
2021/09/11 16:17:03;;;;;;;;;13.00;12.00;;;;;31.79;23.50;98757.91;6163999;28;97527;-61
2021/09/11 16:20:10;;;;;;;;;19.60;18.60;;;;;31.59;25.07;98754.28;6163693;28;97448;-62